Time;durP1;ratioP1;P1;durP2;ratioP2;P2;SDS_P1;SDS_P2;PMS_P1;PMS_P2;Temp;Humidity;BMP_temperature;BMP_pressure;BME280_temperature;BME280_humidity;BME280_pressure;Samples;Min_cycle;Max_cycle;Signal;HPM_P1;HPM_P2
2021/10/25 00:01:00;;;;;;;9.35;2.72;;;;;;;10.85;77.08;99889.44;4987561;28;20446;-48
2021/10/25 00:03:27;;;;;;;7.30;2.13;;;;;;;10.86;76.73;99890.28;4995503;28;20072;-49
2021/10/25 00:05:54;;;;;;;11.13;2.85;;;;;;;10.83;76.35;99893.75;4987570;28;20115;-49
2021/10/25 00:08:20;;;;;;;7.00;2.25;;;;;;;10.82;76.73;99893.78;4984038;28;20506;-50
2021/10/25 00:10:47;;;;;;;9.82;2.55;;;;;;;10.78;76.60;99893.78;4984159;28;20100;-49
2021/10/25 00:13:15;;;;;;;11.50;3.20;;;;;;;10.76;76.61;99899.84;4990027;28;20046;-48
2021/10/25 00:15:42;;;;;;;8.40;2.40;;;;;;;10.76;76.55;99899.84;4992917;28;20049;-50
2021/10/25 00:18:08;;;;;;;7.95;1.95;;;;;;;10.74;76.58;99899.84;4990939;28;20054;-50
2021/10/25 00:20:35;;;;;;;9.20;2.22;;;;;;;10.71;76.50;99899.88;4991886;28;20042;-49
2021/10/25 00:23:03;;;;;;;6.30;2.72;;;;;;;10.71;76.87;99901.63;4987284;28;20054;-48
2021/10/25 00:25:32;;;;;;;8.25;1.85;;;;;;;10.70;76.52;99898.16;4987613;28;20254;-49
2021/10/25 00:27:58;;;;;;;8.15;3.08;;;;;;;10.69;76.82;99901.63;4989161;28;20050;-49
2021/10/25 00:30:25;;;;;;;10.40;2.45;;;;;;;10.67;77.02;99891.25;4989672;28;20062;-50
2021/10/25 00:32:52;;;;;;;12.95;3.00;;;;;;;10.65;77.16;99892.16;4986655;28;20054;-51
2021/10/25 00:35:19;;;;;;;11.18;2.30;;;;;;;10.64;76.54;99886.09;5000879;28;20050;-49
2021/10/25 00:37:46;;;;;;;8.00;2.67;;;;;;;10.64;76.59;99891.28;4979631;28;20042;-49
2021/10/25 00:40:13;;;;;;;10.75;2.45;;;;;;;10.62;76.41;99882.66;4986530;28;20163;-49
2021/10/25 00:42:39;;;;;;;7.93;2.58;;;;;;;10.61;76.14;99890.44;4991778;28;20705;-49
2021/10/25 00:45:06;;;;;;;8.32;2.63;;;;;;;10.59;76.90;99892.16;4989949;28;20049;-50
2021/10/25 00:47:33;;;;;;;14.25;2.45;;;;;;;10.54;76.32;99884.44;4990486;28;20120;-53
2021/10/25 00:50:00;;;;;;;14.27;2.90;;;;;;;10.54;76.61;99885.28;4989403;28;20045;-49
2021/10/25 00:52:27;;;;;;;10.13;2.05;;;;;;;10.52;76.85;99889.63;4991797;28;20101;-49
2021/10/25 00:54:53;;;;;;;7.45;1.67;;;;;;;10.53;76.82;99878.41;4988463;28;20045;-48
2021/10/25 00:57:20;;;;;;;13.23;2.13;;;;;;;10.49;76.77;99881.00;4988786;28;20479;-50
2021/10/25 00:59:47;;;;;;;7.75;2.15;;;;;;;10.49;76.68;99881.88;4998728;28;20049;-49
2021/10/25 01:02:13;;;;;;;11.95;2.80;;;;;;;10.49;76.86;99881.00;4988436;28;20108;-50
2021/10/25 01:04:40;;;;;;;9.00;2.95;;;;;;;10.48;76.91;99885.34;4992353;28;20061;-52
2021/10/25 01:07:11;;;;;;;7.90;1.65;;;;;;;10.45;76.54;99880.16;4986440;28;20053;-50
2021/10/25 01:09:38;;;;;;;11.00;2.40;;;;;;;10.45;76.60;99882.75;4982684;28;20100;-51
2021/10/25 01:12:05;;;;;;;14.55;3.22;;;;;;;10.43;76.96;99887.03;4989036;28;20537;-50
2021/10/25 01:14:32;;;;;;;10.18;2.92;;;;;;;10.40;76.54;99879.28;4989424;28;20050;-50
2021/10/25 01:16:59;;;;;;;13.95;3.55;;;;;;;10.38;77.06;99888.78;4991395;28;20482;-53
2021/10/25 01:19:25;;;;;;;13.13;2.95;;;;;;;10.38;77.19;99881.03;4995061;28;20046;-50
2021/10/25 01:21:52;;;;;;;10.90;2.85;;;;;;;10.38;76.91;99878.44;4993741;28;20050;-49
2021/10/25 01:24:18;;;;;;;8.45;2.10;;;;;;;10.36;77.50;99874.97;4990512;28;20054;-49
2021/10/25 01:26:45;;;;;;;12.02;1.95;;;;;;;10.38;77.33;99875.84;4997208;28;20058;-49
2021/10/25 01:29:11;;;;;;;7.65;1.80;;;;;;;10.37;77.13;99881.91;4991481;28;20092;-51
2021/10/25 01:31:38;;;;;;;11.70;2.38;;;;;;;10.37;77.13;99876.72;4987979;28;20054;-50
2021/10/25 01:34:05;;;;;;;12.18;2.90;;;;;;;10.36;77.25;99877.56;4993613;28;20531;-50
2021/10/25 01:36:32;;;;;;;7.00;3.00;;;;;;;10.34;77.18;99871.56;4989296;28;20054;-53
2021/10/25 01:38:59;;;;;;;7.80;1.73;;;;;;;10.34;77.28;99869.81;4992411;28;20093;-49
2021/10/25 01:41:25;;;;;;;11.55;2.47;;;;;;;10.33;77.34;99869.84;4983719;28;20054;-50
2021/10/25 01:43:52;;;;;;;9.95;2.03;;;;;;;10.32;77.02;99874.16;4992819;28;20058;-49
2021/10/25 01:46:19;;;;;;;8.85;2.15;;;;;;;10.31;77.38;99872.44;4986999;28;20065;-50
2021/10/25 01:48:46;;;;;;;14.80;2.45;;;;;;;10.32;76.96;99871.56;4988424;28;20049;-49
2021/10/25 01:51:13;;;;;;;11.73;2.03;;;;;;;10.33;77.45;99870.69;4986322;28;20112;-50
2021/10/25 01:53:39;;;;;;;7.13;2.17;;;;;;;10.32;77.20;99878.47;4987291;28;20710;-50
2021/10/25 01:56:09;;;;;;;13.70;2.60;;;;;;;10.30;77.28;99868.09;4987683;28;20073;-49
2021/10/25 01:58:35;;;;;;;11.77;2.47;;;;;;;10.28;77.75;99868.13;4989961;28;20105;-49
2021/10/25 02:01:02;;;;;;;5.85;1.63;;;;;;;10.28;77.32;99870.72;4992219;28;20541;-50
2021/10/25 02:03:31;;;;;;;11.15;3.53;;;;;;;10.29;77.33;99858.63;4988017;28;20170;-51
2021/10/25 02:05:58;;;;;;;13.15;2.97;;;;;;;10.26;76.99;99856.91;4994709;28;20046;-51
2021/10/25 02:08:25;;;;;;;15.35;2.50;;;;;;;10.26;76.67;99859.50;4990864;28;20050;-50
2021/10/25 02:10:52;;;;;;;11.40;2.40;;;;;;;10.25;77.28;99862.97;4987755;28;20054;-49
2021/10/25 02:13:20;;;;;;;8.73;1.88;;;;;;;10.25;77.16;99862.09;4991121;28;20050;-49
2021/10/25 02:15:47;;;;;;;10.48;2.15;;;;;;;10.21;77.57;99856.09;4990822;28;20054;-50
2021/10/25 02:18:14;;;;;;;12.98;3.90;;;;;;;10.18;77.64;99856.09;5002693;28;20046;-50
2021/10/25 02:20:42;;;;;;;10.73;2.75;;;;;;;10.19;77.37;99847.44;4975096;28;20082;-50
2021/10/25 02:23:09;;;;;;;11.50;3.33;;;;;;;10.14;77.79;99851.81;4990662;28;20047;-49
2021/10/25 02:25:36;;;;;;;13.50;3.40;;;;;;;10.15;77.67;99850.94;5000085;28;20046;-53
2021/10/25 02:28:04;;;;;;;8.35;2.38;;;;;;;10.15;77.27;99848.34;4995324;28;20042;-50
2021/10/25 02:30:33;;;;;;;9.52;2.60;;;;;;;10.13;77.83;99842.28;4992284;28;20074;-49
2021/10/25 02:33:01;;;;;;;12.10;2.90;;;;;;;10.12;77.96;99845.75;4991393;28;20058;-50
2021/10/25 02:35:29;;;;;;;15.93;4.38;;;;;;;10.11;78.24;99844.03;4989485;28;20054;-49
2021/10/25 02:37:57;;;;;;;11.45;2.55;;;;;;;10.12;77.81;99845.75;4991146;28;20058;-48
2021/10/25 02:40:26;;;;;;;11.00;2.90;;;;;;;10.11;77.92;99836.28;4988549;28;20046;-49
2021/10/25 02:42:53;;;;;;;12.35;3.03;;;;;;;10.11;77.74;99842.31;4984031;28;20088;-50
2021/10/25 02:45:19;;;;;;;7.20;2.72;;;;;;;10.12;77.83;99846.63;4992329;28;20058;-50
2021/10/25 02:47:47;;;;;;;13.57;2.45;;;;;;;10.12;78.10;99840.56;5001693;28;20102;-50
2021/10/25 02:50:14;;;;;;;17.70;2.75;;;;;;;10.10;78.02;99842.34;4989101;28;20100;-49
2021/10/25 02:52:41;;;;;;;9.13;2.13;;;;;;;10.08;78.02;99831.09;5002552;28;20109;-48
2021/10/25 02:55:08;;;;;;;15.30;2.40;;;;;;;10.11;78.03;99838.88;4988953;28;20046;-50
2021/10/25 02:57:35;;;;;;;7.93;2.92;;;;;;;10.11;77.72;99833.69;4997976;28;20101;-50
2021/10/25 03:00:05;;;;;;;11.35;2.63;;;;;;;10.09;77.57;99835.41;4994999;28;20049;-49
2021/10/25 03:02:32;;;;;;;8.23;2.25;;;;;;;10.06;78.06;99825.94;4989587;28;20054;-50
2021/10/25 03:04:59;;;;;;;14.57;3.05;;;;;;;10.07;78.64;99826.81;4990525;28;20050;-49
2021/10/25 03:07:26;;;;;;;15.98;2.72;;;;;;;10.05;77.99;99823.34;4988257;28;20098;-49
2021/10/25 03:09:52;;;;;;;13.63;1.88;;;;;;;10.06;78.44;99831.13;4997864;28;20522;-49
2021/10/25 03:12:19;;;;;;;10.00;1.98;;;;;;;10.05;77.92;99823.34;4988104;28;20047;-50
2021/10/25 03:14:46;;;;;;;7.30;2.13;;;;;;;10.03;78.29;99826.81;4995706;28;20105;-50
2021/10/25 03:17:12;;;;;;;16.98;3.20;;;;;;;10.01;78.20;99813.03;4992643;28;20742;-49
2021/10/25 03:19:40;;;;;;;10.52;2.55;;;;;;;10.03;78.45;99816.47;4991482;28;20047;-50
2021/10/25 03:22:08;;;;;;;10.45;2.47;;;;;;;10.02;78.00;99814.75;4996110;28;20109;-53
2021/10/25 03:24:35;;;;;;;8.63;2.10;;;;;;;9.98;78.02;99805.28;4990612;28;20078;-50
2021/10/25 03:27:03;;;;;;;11.20;2.60;;;;;;;10.00;77.90;99815.63;4994766;28;20446;-50
2021/10/25 03:29:29;;;;;;;7.10;1.58;;;;;;;9.98;77.57;99807.88;4994690;28;20084;-52
2021/10/25 03:31:56;;;;;;;8.82;1.70;;;;;;;9.98;78.08;99813.03;4989291;28;20058;-50
2021/10/25 03:34:23;;;;;;;7.13;1.83;;;;;;;9.98;78.34;99812.19;4988731;28;20050;-49
2021/10/25 03:36:50;;;;;;;6.80;2.00;;;;;;;9.99;77.99;99809.59;4991959;28;20098;-49
2021/10/25 03:39:21;;;;;;;6.40;2.05;;;;;;;10.00;78.07;99806.13;4990282;28;20058;-52
2021/10/25 03:41:49;;;;;;;9.40;1.92;;;;;;;10.00;77.30;99816.47;4985949;28;20069;-49
2021/10/25 03:44:24;;;;;;;12.35;2.30;;;;;;;10.00;78.14;99808.72;4993197;28;20112;-52
2021/10/25 03:47:04;;;;;;;12.70;2.10;;;;;;;9.99;78.20;99807.00;4989264;28;20042;-50
2021/10/25 03:49:41;;;;;;;12.40;2.33;;;;;;;9.98;78.02;99807.88;4993169;28;20042;-53
2021/10/25 03:52:19;;;;;;;8.10;2.25;;;;;;;9.97;77.78;99816.47;5001137;28;20049;-50
2021/10/25 03:54:57;;;;;;;10.90;2.85;;;;;;;9.97;77.97;99811.31;4988222;28;20105;-49
2021/10/25 04:03:22;;;;;;;7.50;2.50;;;;;;;9.94;77.77;99819.09;4985540;28;20065;-49
2021/10/25 04:25:45;;;;;;;11.07;1.52;;;;;;;9.94;78.33;99816.53;4990211;28;20050;-49
2021/10/25 04:28:12;;;;;;;6.68;1.73;;;;;;;9.94;77.92;99813.94;4989622;28;20482;-50
2021/10/25 04:30:39;;;;;;;9.55;1.77;;;;;;;9.97;78.09;99818.22;4991311;28;20380;-50
2021/10/25 04:33:06;;;;;;;11.75;1.85;;;;;;;9.98;78.10;99823.41;4986977;28;20050;-49
2021/10/25 04:35:33;;;;;;;9.15;1.52;;;;;;;9.97;78.42;99826.81;5000086;28;20042;-50
2021/10/25 04:38:00;;;;;;;10.30;1.40;;;;;;;10.00;78.50;99825.97;4993609;28;20046;-49
2021/10/25 04:40:27;;;;;;;11.82;2.08;;;;;;;9.99;78.04;99825.09;4991427;28;20054;-49
2021/10/25 04:42:56;;;;;;;10.68;1.48;;;;;;;10.01;77.99;99828.56;4988923;28;20050;-49
2021/10/25 04:45:23;;;;;;;5.85;1.58;;;;;;;10.00;78.01;99826.81;4987001;28;20039;-50
2021/10/25 04:47:52;;;;;;;15.02;1.80;;;;;;;9.98;77.67;99823.41;4997856;28;20046;-50
2021/10/25 04:50:19;;;;;;;5.75;1.42;;;;;;;9.98;77.84;99823.41;4987759;28;20120;-49
2021/10/25 04:52:45;;;;;;;14.50;2.03;;;;;;;9.98;78.53;99823.41;4991624;28;20050;-50
2021/10/25 04:55:12;;;;;;;4.57;1.25;;;;;;;9.95;77.96;99813.06;4991262;28;20108;-49
2021/10/25 04:57:38;;;;;;;8.63;1.55;;;;;;;9.95;77.98;99819.94;4990836;28;20461;-49
2021/10/25 05:00:07;;;;;;;7.95;2.13;;;;;;;9.94;78.11;99805.28;4988666;28;20101;-49
2021/10/25 05:02:33;;;;;;;8.27;1.67;;;;;;;9.91;78.13;99806.19;4990430;28;20558;-53
2021/10/25 05:05:03;;;;;;;9.95;1.60;;;;;;;9.91;77.92;99806.19;4992004;28;20050;-49
2021/10/25 05:07:30;;;;;;;8.20;1.35;;;;;;;9.91;77.47;99811.34;4987086;28;20050;-51
2021/10/25 05:09:57;;;;;;;8.90;1.65;;;;;;;9.89;78.16;99807.88;4993396;28;20126;-49
2021/10/25 05:12:24;;;;;;;6.95;1.50;;;;;;;9.90;77.65;99820.81;4988384;28;20043;-49
2021/10/25 05:14:50;;;;;;;8.73;1.42;;;;;;;9.90;78.20;99818.25;4983403;28;20049;-50
2021/10/25 05:17:17;;;;;;;7.47;1.48;;;;;;;9.88;78.14;99811.34;4993212;28;21540;-51
2021/10/25 05:19:44;;;;;;;11.68;1.70;;;;;;;9.88;78.50;99816.53;4988466;28;20050;-49
2021/10/25 05:22:11;;;;;;;8.73;1.85;;;;;;;9.89;78.25;99813.06;4988166;28;20081;-50
2021/10/25 05:24:41;;;;;;;11.70;1.42;;;;;;;9.88;77.96;99813.94;4987640;28;20068;-49
2021/10/25 05:27:08;;;;;;;7.60;1.42;;;;;;;9.87;78.23;99825.16;4987301;28;20050;-49
2021/10/25 05:29:35;;;;;;;8.95;1.30;;;;;;;9.89;78.38;99818.25;4989880;28;20088;-49
2021/10/25 05:32:03;;;;;;;12.90;2.75;;;;;;;9.90;77.98;99827.75;4989882;28;20104;-49
2021/10/25 05:34:31;;;;;;;9.43;2.67;;;;;;;9.88;78.20;99819.13;4997073;28;20050;-50
2021/10/25 05:36:59;;;;;;;11.20;2.13;;;;;;;9.89;78.24;99823.41;4990829;28;20053;-51
2021/10/25 05:39:26;;;;;;;9.13;1.40;;;;;;;9.90;78.43;99820.81;4996915;28;20064;-50
2021/10/25 05:41:52;;;;;;;6.43;1.75;;;;;;;9.91;77.76;99819.13;4991766;28;20109;-51
2021/10/25 05:44:19;;;;;;;10.30;2.25;;;;;;;9.91;78.32;99816.53;4987557;28;20089;-49
2021/10/25 05:46:46;;;;;;;7.43;1.90;;;;;;;9.91;78.28;99806.19;4996687;28;20045;-50
2021/10/25 05:49:14;;;;;;;6.97;1.42;;;;;;;9.93;78.03;99819.09;4991081;28;20077;-50
2021/10/25 05:51:40;;;;;;;11.77;2.13;;;;;;;9.93;78.41;99822.53;4994874;28;20054;-51
2021/10/25 05:54:07;;;;;;;7.72;1.50;;;;;;;9.94;78.80;99815.66;4993248;28;20054;-50
2021/10/25 05:56:34;;;;;;;9.13;1.27;;;;;;;9.95;78.46;99813.06;4993122;28;20050;-50
2021/10/25 05:59:00;;;;;;;7.07;1.52;;;;;;;9.96;78.42;99819.94;4990045;28;20043;-49
2021/10/25 06:01:34;;;;;;;3.80;1.45;;;;;;;9.97;78.28;99813.88;4989307;28;20046;-50
2021/10/25 06:04:06;;;;;;;8.50;1.38;;;;;;;9.98;78.04;99813.03;4995224;28;20116;-52
2021/10/25 06:06:33;;;;;;;8.38;1.50;;;;;;;9.98;78.01;99823.41;4992111;28;20050;-50
2021/10/25 06:09:01;;;;;;;8.18;1.30;;;;;;;9.96;78.71;99819.94;4992763;28;20104;-51
2021/10/25 06:11:29;;;;;;;8.38;1.50;;;;;;;9.92;78.61;99807.88;4990575;28;20061;-49
2021/10/25 06:14:00;;;;;;;3.22;1.30;;;;;;;9.95;78.41;99813.06;5001584;28;20090;-49
2021/10/25 06:16:47;;;;;;;9.88;1.63;;;;;;;9.95;78.46;99818.22;4990083;28;20499;-49
2021/10/25 06:19:15;;;;;;;7.85;1.73;;;;;;;9.94;78.39;99815.66;4998751;28;20105;-52
2021/10/25 06:21:42;;;;;;;10.48;2.40;;;;;;;9.93;78.35;99809.59;4987768;28;20100;-49
2021/10/25 06:24:13;;;;;;;6.57;2.00;;;;;;;9.92;78.42;99815.66;4986306;28;20057;-49
2021/10/25 06:26:40;;;;;;;7.90;1.95;;;;;;;9.90;78.39;99814.81;4990328;28;20137;-49
2021/10/25 06:29:07;;;;;;;9.95;1.58;;;;;;;9.89;78.32;99810.47;4989561;28;20552;-50
2021/10/25 06:31:34;;;;;;;11.02;2.03;;;;;;;9.87;78.06;99814.81;4998691;28;20066;-49
2021/10/25 06:34:07;;;;;;;9.35;1.65;;;;;;;9.88;78.44;99819.13;4986547;28;20042;-50
2021/10/25 06:36:35;;;;;;;6.50;1.42;;;;;;;9.86;78.92;99818.28;4987021;28;20545;-50
2021/10/25 06:41:50;;;;;;;9.27;1.88;;;;;;;9.87;78.52;99825.16;4987546;28;20070;-49
2021/10/25 06:44:16;;;;;;;8.85;1.75;;;;;;;9.88;78.50;99826.88;4986275;28;20255;-49
2021/10/25 06:46:44;;;;;;;13.20;1.73;;;;;;;9.89;78.28;99826.88;4982783;28;20081;-49
2021/10/25 06:49:11;;;;;;;9.63;1.35;;;;;;;9.90;78.30;99827.75;4988744;28;20057;-49
2021/10/25 06:51:38;;;;;;;12.23;1.55;;;;;;;9.92;78.44;99833.75;4991499;28;20173;-50
2021/10/25 06:54:06;;;;;;;8.82;1.17;;;;;;;9.94;78.45;99836.34;4986952;28;20497;-50
2021/10/25 06:56:33;;;;;;;9.63;1.35;;;;;;;9.96;78.46;99840.63;4995387;28;20054;-49
2021/10/25 06:59:00;;;;;;;13.90;1.63;;;;;;;9.98;78.41;99833.75;4990819;28;20511;-52
2021/10/25 07:01:26;;;;;;;10.63;1.55;;;;;;;9.99;78.60;99830.28;4992456;28;20119;-49
2021/10/25 07:03:54;;;;;;;15.20;2.25;;;;;;;9.99;78.53;99835.47;4989073;28;20141;-51
2021/10/25 07:06:21;;;;;;;12.90;1.95;;;;;;;10.00;78.21;99826.81;5002779;28;20049;-49
2021/10/25 07:08:49;;;;;;;16.08;1.80;;;;;;;9.98;78.92;99838.91;4988198;28;20112;-50
2021/10/25 07:11:17;;;;;;;14.77;2.25;;;;;;;10.01;78.52;99838.91;4991846;28;20050;-50
2021/10/25 07:13:47;;;;;;;11.93;2.15;;;;;;;10.00;78.23;99846.69;4993682;28;20065;-50
2021/10/25 07:16:19;;;;;;;10.48;1.52;;;;;;;10.00;77.89;99846.69;4983297;28;20502;-50
2021/10/25 07:19:07;;;;;;;11.60;1.85;;;;;;;9.97;78.31;99847.53;4997911;28;20073;-49
2021/10/25 07:27:37;;;;;;;11.60;1.48;;;;;;;10.01;78.08;99849.28;4998029;28;20121;-49
2021/10/25 08:00:46;;;;;;;11.40;1.60;;;;;;;13.77;73.98;99887.66;4968389;28;20054;-50
2021/10/25 08:03:42;;;;;;;9.73;1.27;;;;;;;14.51;72.16;99890.53;4985522;28;20042;-50
2021/10/25 08:06:08;;;;;;;12.18;2.00;;;;;;;15.13;70.16;99893.53;4985854;28;20093;-52
2021/10/25 08:08:45;;;;;;;5.57;1.40;;;;;;;15.57;69.21;99888.06;4991932;28;20051;-50
2021/10/25 08:11:12;;;;;;;6.82;1.30;;;;;;;15.94;67.56;99888.81;4987690;28;20046;-53
2021/10/25 08:13:41;;;;;;;13.32;1.67;;;;;;;16.28;67.76;99887.06;4994346;28;20112;-53
2021/10/25 08:16:20;;;;;;;9.32;1.40;;;;;;;16.69;66.72;99890.16;4982873;28;20054;-53
2021/10/25 08:21:35;;;;;;;5.22;1.17;;;;;;;17.45;65.04;99879.06;4986753;28;20051;-52
2021/10/25 08:24:02;;;;;;;8.15;1.58;;;;;;;17.80;64.19;99893.63;4991416;28;20047;-51
2021/10/25 08:26:29;;;;;;;14.32;2.17;;;;;;;18.03;64.03;99879.66;4989255;28;20104;-51
2021/10/25 08:28:56;;;;;;;7.10;1.42;;;;;;;18.27;62.77;99886.72;4988780;28;20062;-51
2021/10/25 08:31:23;;;;;;;5.25;1.00;;;;;;;18.60;62.30;99894.22;4991316;28;20525;-51
2021/10/25 08:34:14;;;;;;;5.57;1.25;;;;;;;19.01;61.49;99894.34;4984654;28;20050;-52
2021/10/25 08:42:10;;;;;;;5.80;0.93;;;;;;;20.60;57.75;99893.72;4987234;28;20100;-50
2021/10/25 08:44:38;;;;;;;5.72;1.85;;;;;;;21.22;56.81;99888.16;4994173;28;20071;-52
2021/10/25 08:47:05;;;;;;;5.80;1.33;;;;;;;21.74;55.22;99888.19;4981753;28;20149;-53
2021/10/25 08:49:32;;;;;;;3.75;1.23;;;;;;;22.42;54.30;99894.28;4982107;28;20077;-50
2021/10/25 08:52:00;;;;;;;5.07;1.73;;;;;;;22.96;52.18;99904.50;4989173;28;20375;-51
2021/10/25 08:54:30;;;;;;;7.07;1.00;;;;;;;23.46;51.24;99901.69;4988287;28;20100;-52
2021/10/25 08:56:59;;;;;;;6.18;1.35;;;;;;;23.91;50.28;99899.94;4990711;28;20129;-51
2021/10/25 08:59:26;;;;;;;3.95;1.23;;;;;;;24.23;49.30;99899.78;4989357;28;20113;-51
2021/10/25 09:02:03;;;;;;;5.80;1.33;;;;;;;24.73;47.97;99904.59;4985726;28;20069;-55
2021/10/25 09:04:30;;;;;;;7.55;1.42;;;;;;;25.15;45.68;99902.75;4981970;28;20047;-48
2021/10/25 09:06:58;;;;;;;5.03;1.42;;;;;;;25.38;45.66;99913.59;4982856;28;20096;-52
2021/10/25 09:09:26;;;;;;;12.70;2.72;;;;;;;25.72;44.94;99907.84;4984399;28;20058;-52
2021/10/25 09:11:57;;;;;;;8.68;1.95;;;;;;;26.20;43.60;99902.81;4985587;28;20054;-53
2021/10/25 09:14:24;;;;;;;7.30;1.60;;;;;;;26.65;43.99;99897.81;4981738;28;20050;-50
2021/10/25 09:16:57;;;;;;;5.65;1.05;;;;;;;26.99;42.80;99896.31;4982319;28;20058;-53
2021/10/25 09:19:24;;;;;;;3.58;1.02;;;;;;;27.30;41.19;99896.66;4980566;28;20136;-54
2021/10/25 09:21:51;;;;;;;5.18;0.90;;;;;;;27.39;41.04;99892.47;4986017;28;20108;-46
2021/10/25 09:24:20;;;;;;;4.45;1.10;;;;;;;27.43;40.36;99886.75;4989964;28;20125;-50
2021/10/25 09:26:59;;;;;;;8.43;1.75;;;;;;;27.16;39.29;99890.59;4987448;28;20124;-52
2021/10/25 09:29:27;;;;;;;5.72;1.90;;;;;;;27.31;39.05;99893.88;4987163;28;20073;-54
2021/10/25 09:31:57;;;;;;;5.30;1.55;;;;;;;27.43;39.50;99901.91;4986659;28;20057;-54
2021/10/25 09:34:36;;;;;;;3.25;0.93;;;;;;;27.32;38.00;99905.38;4983194;28;20559;-54
2021/10/25 09:37:06;;;;;;;6.53;1.77;;;;;;;26.75;40.61;99895.31;4985665;28;20061;-55
2021/10/25 09:39:46;;;;;;;3.78;0.90;;;;;;;26.68;41.10;99891.44;4984832;28;20081;-55
2021/10/25 09:42:38;;;;;;;3.53;0.90;;;;;;;27.13;39.89;99908.56;4983605;28;20046;-52
2021/10/25 09:51:14;;;;;;;6.03;1.23;;;;;;;25.01;41.98;99902.81;4986790;28;20054;-53
2021/10/25 09:54:01;;;;;;;5.53;1.00;;;;;;;23.96;43.30;99903.16;4997905;28;20142;-54
2021/10/25 09:56:31;;;;;;;6.13;1.13;;;;;;;23.11;43.97;99905.41;4986659;28;20050;-52
2021/10/25 09:59:09;;;;;;;7.40;1.13;;;;;;;22.44;45.24;99902.97;4989013;28;20054;-54
2021/10/25 10:01:36;;;;;;;8.35;1.17;;;;;;;21.68;46.31;99895.47;4982342;28;20046;-53
2021/10/25 10:04:05;;;;;;;4.93;1.20;;;;;;;21.18;47.45;99897.13;4985136;28;20410;-53
2021/10/25 10:06:32;;;;;;;6.50;1.02;;;;;;;20.66;48.85;99906.56;4988126;28;20467;-53
2021/10/25 10:09:00;;;;;;;4.65;1.48;;;;;;;20.20;49.50;99899.91;4985746;28;20066;-54
2021/10/25 10:11:27;;;;;;;3.38;1.33;;;;;;;19.87;50.62;99898.69;4993283;28;20057;-54
2021/10/25 10:13:55;;;;;;;7.93;1.48;;;;;;;19.51;51.22;99901.97;4983714;28;21126;-53
2021/10/25 10:16:24;;;;;;;6.63;1.23;;;;;;;19.27;51.51;99895.09;4986138;28;20193;-53
2021/10/25 10:19:00;;;;;;;5.72;1.08;;;;;;;19.02;52.00;99901.28;4982015;28;20604;-53
2021/10/25 10:21:28;;;;;;;6.03;1.75;;;;;;;18.85;52.25;99898.50;4997316;28;20106;-52
2021/10/25 10:24:03;;;;;;;8.90;1.50;;;;;;;18.66;53.52;99895.72;4995055;28;20069;-52
2021/10/25 10:26:32;;;;;;;6.55;1.45;;;;;;;18.47;52.89;99894.69;4986920;28;20050;-50
2021/10/25 10:29:10;;;;;;;9.75;1.83;;;;;;;18.27;53.36;99891.97;4988225;28;20565;-53
2021/10/25 10:31:37;;;;;;;2.85;1.15;;;;;;;18.13;54.46;99892.50;4986347;28;20879;-52
2021/10/25 10:34:19;;;;;;;4.20;1.15;;;;;;;17.93;55.13;99894.03;4989209;28;20143;-51
2021/10/25 10:36:52;;;;;;;2.67;1.42;;;;;;;17.85;55.19;99892.53;4989591;28;20050;-52
2021/10/25 10:39:19;;;;;;;7.72;1.65;;;;;;;17.80;54.67;99893.63;4989834;28;20050;-53
2021/10/25 10:41:55;;;;;;;4.90;1.98;;;;;;;17.65;55.37;99885.38;4996153;28;20057;-50
2021/10/25 10:44:26;;;;;;;;;;;;;;;17.63;55.51;99884.56;4980702;28;21106;-52
2021/10/25 10:46:56;;;;;;;3.95;0.90;;;;;;;17.75;55.55;99885.03;4984480;28;19926;-53
2021/10/25 10:49:28;;;;;;;21.30;8.18;;;;;;;17.80;55.31;99899.69;4983299;28;20565;-51
2021/10/25 10:52:26;;;;;;;6.15;1.50;;;;;;;17.92;55.66;99901.03;4982184;28;20050;-49
2021/10/25 10:55:25;;;;;;;2.85;1.25;;;;;;;17.99;55.54;99894.66;4987187;28;20519;-49
2021/10/25 10:58:23;;;;;;;7.70;1.73;;;;;;;18.00;54.75;99890.25;4988398;28;20054;-50
2021/10/25 11:00:48;;;;;;;5.63;1.20;;;;;;;17.97;55.21;99899.09;4987412;28;20057;-52
2021/10/25 11:03:24;;;;;;;7.15;1.63;;;;;;;17.99;55.00;99894.66;4990255;28;20046;-49
2021/10/25 11:05:58;;;;;;;5.18;1.25;;;;;;;18.03;55.10;99900.63;4984787;28;20085;-50
2021/10/25 11:08:31;;;;;;;3.55;1.10;;;;;;;18.17;54.47;99897.53;4991441;28;20491;-53
2021/10/25 11:11:06;;;;;;;5.53;1.20;;;;;;;18.27;54.86;99894.59;4986195;28;20057;-49
2021/10/25 11:13:36;;;;;;;3.58;0.85;;;;;;;18.22;54.76;99895.63;4989967;28;20058;-53
2021/10/25 11:16:08;;;;;;;4.93;1.15;;;;;;;18.05;54.05;99898.84;4990038;28;20116;-53
2021/10/25 11:18:39;;;;;;;3.05;0.70;;;;;;;17.81;54.75;99895.31;4992522;28;20046;-52
2021/10/25 11:21:11;;;;;;;4.47;0.80;;;;;;;17.67;55.46;99899.25;4990752;28;20038;-50
2021/10/25 11:23:40;;;;;;;5.57;1.00;;;;;;;17.60;55.32;99895.16;4993133;28;20115;-50
2021/10/25 11:26:09;;;;;;;;;;;;;;;17.50;56.60;99901.63;4998166;28;20045;-52
2021/10/25 11:28:36;;;;;;;2.55;1.33;;;;;;;17.61;55.65;99912.59;4989746;28;19925;-51
2021/10/25 11:31:04;;;;;;;3.17;1.33;;;;;;;17.55;56.30;99908.41;4989219;28;20462;-51
2021/10/25 11:33:31;;;;;;;4.47;1.42;;;;;;;17.43;56.19;99907.06;4987268;28;20050;-52
2021/10/25 11:35:58;;;;;;;5.35;1.85;;;;;;;17.35;55.82;99909.06;4992537;28;20054;-50
2021/10/25 11:38:26;;;;;;;7.95;2.75;;;;;;;17.29;55.43;99906.69;5001037;28;20058;-51
2021/10/25 11:40:53;;;;;;;4.05;1.52;;;;;;;17.17;55.43;99916.66;4988311;28;20078;-49
2021/10/25 11:43:29;;;;;;;14.60;5.05;;;;;;;17.06;55.42;99908.28;4987835;28;20109;-52
2021/10/25 11:45:55;;;;;;;7.47;3.53;;;;;;;16.95;55.74;99909.44;4990345;28;20053;-52
2021/10/25 11:48:29;;;;;;;4.78;1.60;;;;;;;16.98;56.06;99905.03;4994987;28;20050;-50
2021/10/25 11:51:00;;;;;;;6.25;1.02;;;;;;;16.98;56.09;99899.78;4987748;28;20119;-49
2021/10/25 11:53:28;;;;;;;3.30;1.25;;;;;;;17.02;56.31;99901.41;4992267;28;20073;-50
2021/10/25 11:55:55;;;;;;;5.07;0.90;;;;;;;17.06;56.66;99903.03;4984437;28;20046;-53
2021/10/25 11:58:26;;;;;;;3.08;0.90;;;;;;;17.06;56.66;99900.44;4986463;28;20046;-50
2021/10/25 12:00:54;;;;;;;2.78;0.70;;;;;;;17.05;56.17;99890.81;4992213;28;20050;-52
2021/10/25 12:03:26;;;;;;;6.15;2.85;;;;;;;16.99;55.92;99902.34;4986591;28;20065;-52
2021/10/25 12:05:53;;;;;;;5.68;2.45;;;;;;;16.93;56.07;99898.16;5000840;28;20046;-52
2021/10/25 12:08:20;;;;;;;11.65;3.33;;;;;;;16.79;55.75;99895.97;4990143;28;20481;-53
2021/10/25 12:10:49;;;;;;;9.75;2.83;;;;;;;16.74;56.03;99897.88;4987203;28;20038;-50
2021/10/25 12:13:17;;;;;;;2.97;0.93;;;;;;;16.70;55.79;99896.28;4986868;28;20058;-49
2021/10/25 12:15:53;;;;;;;3.22;1.27;;;;;;;16.66;55.84;99894.66;4991371;28;20046;-50
2021/10/25 12:18:20;;;;;;;;;;;;;;;16.62;57.42;99891.25;4989133;28;20550;-50
2021/10/25 12:20:48;;;;;;;3.08;1.25;;;;;;;16.77;56.43;99892.56;4981603;28;19961;-52
2021/10/25 12:23:26;;;;;;;2.67;1.23;;;;;;;16.78;56.19;99893.41;4988547;28;20447;-49
2021/10/25 12:25:57;;;;;;;4.18;0.93;;;;;;;16.70;55.67;99891.03;4984783;28;20042;-52
2021/10/25 12:28:24;;;;;;;5.53;0.93;;;;;;;16.63;56.31;99885.16;4987573;28;20054;-49
2021/10/25 12:31:06;;;;;;;2.78;0.88;;;;;;;16.63;56.63;99890.38;5000604;28;20152;-50
2021/10/25 12:33:37;;;;;;;40.38;7.90;;;;;;;16.67;56.30;99892.00;4986196;28;20050;-52
2021/10/25 12:36:15;;;;;;;12.27;2.78;;;;;;;16.66;55.76;99889.44;4992482;28;20487;-52
2021/10/25 12:38:44;;;;;;;4.40;1.33;;;;;;;16.73;55.33;99890.09;4992534;28;20081;-50
2021/10/25 12:41:11;;;;;;;4.97;1.05;;;;;;;16.82;56.03;99889.81;4983553;28;20776;-49
2021/10/25 12:43:41;;;;;;;1.60;0.90;;;;;;;16.89;55.56;99885.25;4989566;28;20054;-50
2021/10/25 12:46:10;;;;;;;4.75;0.77;;;;;;;16.99;55.71;99883.19;4988032;28;20046;-52
2021/10/25 12:48:44;;;;;;;2.50;1.08;;;;;;;17.15;56.03;99881.81;4992090;28;20137;-49
2021/10/25 12:51:11;;;;;;;2.28;0.60;;;;;;;17.17;55.28;99882.63;4978919;28;20104;-50
2021/10/25 12:53:43;;;;;;;2.15;0.85;;;;;;;16.97;54.78;99885.84;4988193;28;20536;-51
2021/10/25 12:56:10;;;;;;;3.95;0.82;;;;;;;16.79;55.24;99889.91;4985806;28;20135;-50
2021/10/25 12:58:37;;;;;;;1.50;0.82;;;;;;;16.64;55.12;99886.84;4986592;28;20058;-52
2021/10/25 13:01:08;;;;;;;3.90;1.05;;;;;;;16.50;54.90;99889.03;4989359;28;20120;-53
2021/10/25 13:03:35;;;;;;;1.55;0.45;;;;;;;16.33;55.05;99874.72;4990431;28;20049;-51